hero-logo

Top 15 Knowers of AFL Aflac Inc - 2017-07-26

Rank Fund Result (K)
1 Lyrical Asset Management Lp $483
2 Philadelphia Financial Management Of San Francisco Llc $426
3 Interval Partners Lp $402
4 Squarepoint Ops Llc $377
5 Guggenheim Capital Llc $189
6 Prospector Partners Llc $146
7 Stifel Financial Corp $123
8 Aperio Group Llc $97
9 Northwestern Mutual Investment Management Company Llc $96
10 Assetmark Inc $64
11 Elkhorn Investments Llc $50
12 Fdo Partners Llc $48
13 Polar Capital Llp $47
14 Guinness Asset Management Ltd $45
15 Gotham Asset Management Llc $39
Price Chart and News From Google Finance for AFL Aflac Inc
Owner Date Shares Change Price Change Result (K)
Acrospire Investment Management Llc 2017-03-31 -1,700 $2.82 $-4
Advantage Investment Management Llc 2017-03-31 -21 $2.82 $0
Ahl Partners Llp 2017-03-31 -26,497 $2.82 $-74
Amalgamated Bank 2017-03-31 1,628 $2.82 $4
Americafirst Capital Management Llc 2017-03-31 5,949 $2.82 $16
Amf Pensionsforsakring Ab 2017-03-31 -288,251 $2.82 $-812
Ancora Advisors Llc 2017-03-31 -1,277 $2.82 $-3
Aperio Group Llc 2017-03-31 34,434 $2.82 $97
Archford Capital Strategies Llc 2017-03-31 200 $2.82 $0
Assetmark Inc 2017-03-31 22,831 $2.82 $64
Auxier Asset Management 2017-03-31 8,360 $2.82 $23
Avalon Advisors Llc 2017-03-31 -156,227 $2.82 $-440
Balentine Llc 2017-03-31 347 $2.82 $0
Beacon Financial Group 2017-06-30 -370 $5.26 $-1
Bell Bank 2017-03-31 306 $2.82 $0
Bienville Capital Management Llc 2017-03-31 0 $2.82 $0
Blair William Co Il 2017-03-31 819 $2.82 $2
Bokf Na 2017-03-31 334 $2.82 $0
Boston Private Wealth Llc 2017-03-31 -1,835 $2.82 $-5
Bowling Portfolio Management Llc 2017-03-31 -73,076 $2.82 $-206
Bragg Financial Advisors Inc 2017-03-31 0 $2.82 $0
Bridgeway Capital Management Inc 2017-03-31 -21,640 $2.82 $-61
Broderick Brian C 2017-03-31 -1,390 $2.82 $-3
Brown Brothers Harriman Co 2017-03-31 0 $2.82 $0
California State Teachers Retirement System 2017-03-31 -36,300 $2.82 $-102
Cambria Investment Management L P 2017-03-31 238 $2.82 $0
Canandaigua National Bank Trust Co 2017-03-31 0 $2.82 $0
Capital Guardian Trust Co 2017-03-31 46 $2.82 $0
Capital Wealth Planning Llc 2017-03-31 0 $2.82 $0
Capstone Investment Advisors Llc 2017-03-31 -50,704 $2.82 $-142
Cetera Advisor Networks Llc 2017-03-31 299 $2.82 $0
Cetera Advisors Llc 2017-03-31 330 $2.82 $0
Compagnie Lombard Odier Scma 2017-03-31 -6,777 $2.82 $-19
Cornerstone Capital Management Holdings Llc 2017-03-31 6,478 $2.82 $18
Cornerstone Wealth Management Llc 2017-03-31 135 $2.82 $0
Covington Capital Management 2017-03-31 -45 $2.82 $0
Crawford Investment Counsel Inc 2017-03-31 -699,654 $2.82 $-1,973
Cypress Wealth Advisors Llc 2017-03-31 295 $2.82 $0
D A Davidson Co 2017-03-31 302 $2.82 $0
Dana Investment Advisors Inc 2017-03-31 -133,585 $2.82 $-376
Denver Investment Advisors Llc 2017-03-31 0 $2.82 $0
Earnest Partners Llc 2017-03-31 -36,721 $2.82 $-103
Edmond De Rothschild Holding S A 2017-03-31 -1,099 $2.82 $-3
Elkhorn Investments Llc 2017-03-31 17,963 $2.82 $50
Endeavour Capital Advisors Inc 2017-03-31 -121,267 $2.82 $-341
Envestnet Asset Management Inc 2017-03-31 -22,239 $2.82 $-62
Estabrook Capital Management 2017-03-31 -650 $2.82 $-1
Evanston Investments Inc Dba Evanston Advisors 2017-03-31 13,808 $2.82 $38
Fayerweather Charles 2017-03-31 -3,350 $2.82 $-9
Fdo Partners Llc 2017-03-31 17,196 $2.82 $48
Fdx Advisors Inc 2017-03-31 -10,741 $2.82 $-30
First Foundation Advisors 2017-03-31 -3,076 $2.82 $-8
First Republic Investment Management Inc 2017-03-31 6,680 $2.82 $18
Focused Wealth Management Inc 2017-03-31 0 $2.82 $0
Gardiner Nancy B 2017-03-31 0 $2.82 $0
Glassman Wealth Services 2017-03-31 0 $2.82 $0
Glen Harbor Capital Management Llc 2017-03-31 -59,500 $2.82 $-167
Gotham Asset Management Llc 2017-03-31 13,859 $2.82 $39
Gratus Capital Llc 2017-03-31 0 $2.82 $0
Group One Trading L P 2017-03-31 68 $2.82 $0
Guggenheim Capital Llc 2017-03-31 67,026 $2.82 $189
Guinness Asset Management Ltd 2017-03-31 15,990 $2.82 $45
Guinness Atkinson Asset Management Inc 2017-03-31 -1,100 $2.82 $-3
Hbk Sorce Advisory Llc 2017-03-31 -1,753 $2.82 $-4
Hendley Co Inc 2017-03-31 0 $2.82 $0
Highvista Strategies Llc 2017-03-31 1,200 $2.82 $3
Hollow Brook Wealth Management Llc 2017-03-31 -2,142 $2.82 $-6
Horizon Investment Services Llc 2017-03-31 -1,289 $2.82 $-3
Horizon Kinetics Llc 2017-03-31 0 $2.82 $0
Ibex Wealth Advisors 2017-03-31 -80 $2.82 $0
Ifp Advisors Inc 2017-03-31 162 $2.82 $0
Iht Wealth Management Llc 2017-03-31 0 $2.82 $0
Intact Investment Management Inc 2017-03-31 -3,000 $2.82 $-8
Intellectus Partners Llc 2017-03-31 0 $2.82 $0
Interval Partners Lp 2017-03-31 142,891 $2.82 $402
Invictus Rg 2017-03-31 -1,491 $2.82 $-4
Itau Unibanco Holding S A 2017-03-31 -20 $2.82 $0
Jane Street Group Llc 2017-03-31 -9,948 $2.82 $-28
Jarislowsky Fraser Ltd 2017-03-31 1,100 $2.82 $3
Johnson Investment Counsel Inc 2017-03-31 -2,955 $2.82 $-8
Keel Point Llc 2017-03-31 -1,067 $2.82 $-3
Kelly Lawrence W Associates Inc Ca 2017-03-31 -700 $2.82 $-1
Kentucky Retirement Systems 2017-03-31 -3,877 $2.82 $-10
Kentucky Retirement Systems Insurance Trust Fund 2017-03-31 -2,358 $2.82 $-6
Kernodle Katon Asset Management Group Llc 2017-03-31 0 $2.82 $0
Kopp Investment Advisors Llc 2017-03-31 -80 $2.82 $0
Krilogy Financial Llc 2017-03-31 0 $2.82 $0
Ladenburg Thalmann Financial Services Inc 2017-03-31 -24,954 $2.82 $-70
Lee Financial Corp 2017-03-31 0 $2.82 $0
Level Four Advisory Services Llc 2017-03-31 342 $2.82 $0
Long Road Investment Counsel Llc 2017-03-31 0 $2.82 $0
Lyrical Asset Management Lp 2017-03-31 171,315 $2.82 $483
Madison Investment Holdings Inc 2017-03-31 -168,697 $2.82 $-475
Maple Capital Management Inc 2017-03-31 -200 $2.82 $0
Marco Investment Management Llc 2017-03-31 -100 $2.82 $0
Mariner Wealth Advisors Llc 2017-03-31 0 $2.82 $0
Mason Street Advisors Llc 2017-03-31 -353 $2.82 $0
Meadow Creek Investment Management Llc 2017-03-31 -49,000 $2.82 $-138
Miles Capital Inc 2017-03-31 -2,422 $2.82 $-6
National Asset Management Inc 2017-03-31 -59 $2.82 $0
New York Life Trust Co 2017-03-31 -1,494 $2.82 $-4
Northwestern Mutual Investment Management Company Llc 2017-03-31 34,284 $2.82 $96
Northwestern Mutual Wealth Management Co 2017-03-31 -6,538 $2.82 $-18
One Capital Management Llc 2017-03-31 -568 $2.82 $-1
Optimum Investment Advisors 2017-03-31 0 $2.82 $0
Pacific Center For Financial Services 2017-03-31 0 $2.82 $0
Paloma Partners Management Co 2017-03-31 -68,466 $2.82 $-193
Peninsula Asset Management Inc 2017-03-31 365 $2.82 $1
Philadelphia Financial Management Of San Francisco Llc 2017-03-31 151,264 $2.82 $426
Philosmith Capital Corp 2017-03-31 0 $2.82 $0
Piedmont Investment Advisors Llc 2017-03-31 2,204 $2.82 $6
Pinkerton Retirement Specialists Llc 2017-03-31 -18 $2.82 $0
Pittenger Anderson Inc 2017-03-31 240 $2.82 $0
Plancorp Llc 2017-03-31 97 $2.82 $0
Polar Capital Llp 2017-03-31 16,900 $2.82 $47
Proficio Capital Partners Llc 2017-03-31 27 $2.82 $0
Prospector Partners Llc 2017-03-31 52,000 $2.82 $146
Public Employees Retirement System Of Ohio 2017-03-31 -4,030 $2.82 $-11
Raymond James Associates 2017-03-31 -2,716 $2.82 $-7
Reynders Mcveigh Capital Management Llc 2017-03-31 -35,835 $2.82 $-101
Richard Bernstein Advisors Llc 2017-03-31 0 $2.82 $0
Riverhead Capital Management Llc 2017-03-31 -30,739 $2.82 $-86
Rothschild Asset Management Inc 2017-03-31 -2,305 $2.82 $-6
Scotia Capital Inc 2017-03-31 -998 $2.82 $-2
Segall Bryant Hamill Llc 2017-03-31 0 $2.82 $0
Sequoia Financial Advisors Llc 2017-03-31 4,611 $2.82 $13
Seven Eight Capital Lp 2017-03-31 12,100 $2.82 $34
Signaturefd Llc 2017-03-31 3,802 $2.82 $10
Silvercrest Asset Management Group Llc 2017-03-31 -849 $2.82 $-2
Smith Howard Wealth Management Llc 2017-03-31 0 $2.82 $0
Somerville Kurt F 2017-03-31 -1,720 $2.82 $-4
Southeast Asset Advisors Inc 2017-03-31 0 $2.82 $0
Sowell Financial Services Llc 2017-03-31 411 $2.82 $1
Squarepoint Ops Llc 2017-03-31 133,981 $2.82 $377
Stadion Money Management Llc 2017-03-31 1,822 $2.82 $5
Staton Financial Advisors Llc 2017-03-31 -1,465 $2.82 $-4
Sterling Capital Management Llc 2017-03-31 -43,677 $2.82 $-123
Sterling Investment Advisors Ltd 2017-03-31 0 $2.82 $0
Stifel Financial Corp 2017-03-31 43,650 $2.82 $123
Tanaka Capital Management Inc 2017-03-31 -413 $2.82 $-1
Tortoise Investment Management Llc 2017-03-31 -38 $2.82 $0
Tyers Asset Management Llc 2017-03-31 -28,000 $2.82 $-78
United Capital Financial Advisers Llc 2017-03-31 -2,066 $2.82 $-5
Veritable L P 2017-03-31 -76 $2.82 $0
Walleye Trading Llc 2017-03-31 10,999 $2.82 $31
Waters Parkerson Co Llc 2017-03-31 -1,612 $2.82 $-4
Wayne Hummer Investments L L C 2017-03-31 3,685 $2.82 $10
Wbi Investments Inc 2017-03-31 -31,517 $2.82 $-88
Wealthsource Partners Llc 2017-03-31 -3,013 $2.82 $-8
Webster Bank N A 2017-03-31 0 $2.82 $0
Willis Investment Counsel 2017-03-31 4,298 $2.82 $12
Yorkbridge Wealth Partners Llc 2017-03-31 0 $2.82 $0